createdAt,value
2022-07-26T00:04:14.316Z,4.32
2022-07-26T00:09:18.468Z,4.30
2022-07-26T00:14:21.415Z,3.65
2022-07-26T00:19:24.354Z,3.15
2022-07-26T00:24:32.368Z,3.83
2022-07-26T00:29:38.212Z,2.97
2022-07-26T00:34:41.039Z,3.33
2022-07-26T00:39:45.223Z,3.17
2022-07-26T00:44:49.076Z,3.40
2022-07-26T00:49:52.083Z,3.85
2022-07-26T00:54:56.523Z,3.50
2022-07-26T01:00:01.152Z,3.25
2022-07-26T01:05:04.305Z,3.30
2022-07-26T01:10:13.066Z,3.10
2022-07-26T01:15:16.949Z,3.08
2022-07-26T01:20:19.824Z,3.38
2022-07-26T01:25:31.511Z,3.17
2022-07-26T01:30:34.414Z,3.28
2022-07-26T01:35:37.196Z,3.30
2022-07-26T01:40:41.403Z,3.20
2022-07-26T01:45:44.239Z,3.47
2022-07-26T01:50:47.281Z,3.47
2022-07-26T01:55:51.427Z,3.30
2022-07-26T02:00:54.281Z,3.63
2022-07-26T02:05:57.115Z,2.92
2022-07-26T02:11:04.287Z,3.47
2022-07-26T02:16:09.887Z,3.40
2022-07-26T02:21:12.739Z,3.20
2022-07-26T02:26:16.971Z,3.20
2022-07-26T02:31:19.906Z,3.33
2022-07-26T02:36:23.613Z,2.97
2022-07-26T02:41:27.863Z,3.03
2022-07-26T02:46:30.750Z,3.80
2022-07-26T02:51:33.648Z,3.17
2022-07-26T02:56:37.875Z,3.30
2022-07-26T03:01:40.795Z,3.15
2022-07-26T03:06:43.749Z,2.92
2022-07-26T03:11:47.912Z,3.40
2022-07-26T03:16:50.802Z,3.60
2022-07-26T03:21:53.597Z,2.70
2022-07-26T03:26:57.726Z,3.33
2022-07-26T03:32:00.577Z,3.47
2022-07-26T03:37:03.366Z,3.50
2022-07-26T03:42:07.804Z,3.08
2022-07-26T03:47:25.730Z,3.10
2022-07-26T03:52:28.492Z,3.10
2022-07-26T03:57:32.756Z,3.35
2022-07-26T04:02:35.672Z,3.05
2022-07-26T04:07:42.946Z,3.50
2022-07-26T04:12:54.205Z,3.10
2022-07-26T04:17:57.072Z,3.55
2022-07-26T04:22:59.990Z,3.60
2022-07-26T04:28:04.737Z,3.40
2022-07-26T04:33:08.274Z,3.75
2022-07-26T04:38:11.233Z,3.35
2022-07-26T04:43:16.195Z,3.28
2022-07-26T04:48:19.144Z,4.20
2022-07-26T04:53:22.015Z,4.35
2022-07-26T04:58:26.194Z,3.70
2022-07-26T05:03:29.153Z,3.72
2022-07-26T05:08:31.965Z,3.85
2022-07-26T05:13:36.231Z,4.10
2022-07-26T05:18:46.051Z,4.03
2022-07-26T05:23:52.220Z,4.07
2022-07-26T05:28:56.371Z,3.75
2022-07-26T05:33:59.232Z,2.72
2022-07-26T05:39:02.087Z,2.78
2022-07-26T05:44:06.852Z,3.97
2022-07-26T05:49:10.271Z,2.88
2022-07-26T05:54:13.117Z,3.00
2022-07-26T05:59:17.404Z,3.50
2022-07-26T06:04:20.424Z,3.78
2022-07-26T06:09:24.217Z,3.45
2022-07-26T06:14:28.518Z,2.90
2022-07-26T06:19:31.645Z,3.60
2022-07-26T06:24:34.590Z,2.80
2022-07-26T06:29:39.027Z,3.03
2022-07-26T06:34:42.272Z,2.50
2022-07-26T06:39:45.086Z,2.28
2022-07-26T06:44:49.279Z,2.08
2022-07-26T06:49:52.135Z,1.85
2022-07-26T06:54:54.938Z,2.00
2022-07-26T06:59:59.032Z,1.42
2022-07-26T07:05:02.304Z,1.20
2022-07-26T07:10:06.544Z,1.02
2022-07-26T07:15:12.302Z,0.90
2022-07-26T07:20:15.623Z,1.30
2022-07-26T07:25:19.755Z,1.05
2022-07-26T07:30:27.941Z,0.88
2022-07-26T07:35:32.011Z,0.82
2022-07-26T07:40:35.837Z,0.80
2022-07-26T07:45:40.295Z,0.68
2022-07-26T07:50:43.177Z,0.70
2022-07-26T07:55:46.840Z,0.70
2022-07-26T08:00:51.730Z,0.80
2022-07-26T08:05:55.653Z,0.80
2022-07-26T08:10:58.908Z,1.38
2022-07-26T08:16:03.381Z,0.80
2022-07-26T08:21:09.755Z,0.63
2022-07-26T08:26:13.824Z,0.73
2022-07-26T08:31:20.028Z,0.90
2022-07-26T08:36:23.201Z,0.60
2022-07-26T08:41:26.197Z,0.80
2022-07-26T08:46:30.518Z,0.80
2022-07-26T08:51:34.052Z,0.82
2022-07-26T08:56:41.566Z,1.00
2022-07-26T09:01:59.758Z,0.68
2022-07-26T09:07:05.789Z,0.85
2022-07-26T09:12:18.259Z,0.95
2022-07-26T09:17:24.059Z,0.88
2022-07-26T09:22:27.001Z,1.27
2022-07-26T09:27:36.694Z,0.70
2022-07-26T09:32:40.861Z,0.80
2022-07-26T09:37:46.015Z,0.60
2022-07-26T09:42:56.760Z,0.93
2022-07-26T09:48:01.717Z,0.63
2022-07-26T09:53:10.627Z,0.82
2022-07-26T09:58:14.452Z,0.68
2022-07-26T10:03:18.985Z,0.90
2022-07-26T10:08:22.188Z,0.70
2022-07-26T10:13:28.066Z,0.75
2022-07-26T10:18:47.340Z,0.90
2022-07-26T10:23:53.247Z,0.80
2022-07-26T10:28:56.130Z,0.93
2022-07-26T10:34:02.576Z,1.40
2022-07-26T10:39:09.940Z,1.17
2022-07-26T10:44:25.473Z,0.75
2022-07-26T10:49:32.874Z,0.80
2022-07-26T10:55:07.101Z,0.95
2022-07-26T11:00:13.773Z,0.80
2022-07-26T11:05:19.265Z,0.73
2022-07-26T11:10:30.726Z,1.00
2022-07-26T11:15:34.328Z,1.65
2022-07-26T11:20:39.099Z,2.08
2022-07-26T11:25:41.984Z,1.38
2022-07-26T11:30:57.689Z,0.93
2022-07-26T11:36:02.025Z,1.40
2022-07-26T11:41:04.933Z,1.67
2022-07-26T11:46:08.246Z,1.40
2022-07-26T11:51:14.152Z,1.83
2022-07-26T11:56:19.459Z,1.40
2022-07-26T12:01:24.126Z,1.42
2022-07-26T12:06:29.029Z,1.30
2022-07-26T12:11:40.192Z,1.70
2022-07-26T12:16:45.006Z,1.63
2022-07-26T12:21:50.927Z,1.45
2022-07-26T12:27:05.923Z,1.50
2022-07-26T12:32:12.896Z,1.42
2022-07-26T12:37:18.852Z,1.40
2022-07-26T12:42:33.097Z,1.35
2022-07-26T12:47:37.880Z,1.60
2022-07-26T12:52:42.923Z,1.33
2022-07-26T12:57:47.605Z,1.35
2022-07-26T13:02:51.201Z,1.70
2022-07-26T13:07:55.542Z,1.27
2022-07-26T13:12:58.427Z,1.10
2022-07-26T13:18:01.358Z,1.27
2022-07-26T13:23:05.604Z,1.10
2022-07-26T13:28:09.627Z,1.30
2022-07-26T13:33:12.519Z,1.17
2022-07-26T13:38:19.115Z,1.27
2022-07-26T13:43:21.951Z,1.60
2022-07-26T13:48:24.797Z,1.10
2022-07-26T13:53:30.315Z,1.00
2022-07-26T13:58:33.320Z,1.33
2022-07-26T14:03:36.585Z,1.20
2022-07-26T14:08:40.849Z,1.08
2022-07-26T14:13:43.855Z,1.08
2022-07-26T14:18:47.237Z,1.02
2022-07-26T14:23:52.095Z,1.13
2022-07-26T14:28:54.964Z,0.93
2022-07-26T14:33:58.135Z,1.30
2022-07-26T14:39:02.519Z,1.20
2022-07-26T14:44:07.168Z,1.20
2022-07-26T14:49:10.682Z,1.30
2022-07-26T14:54:15.226Z,1.38
2022-07-26T14:59:18.076Z,1.30
2022-07-26T15:04:20.941Z,1.85
2022-07-26T15:09:25.094Z,1.30
2022-07-26T15:14:27.928Z,0.88
2022-07-26T15:19:30.766Z,2.15
2022-07-26T15:24:39.584Z,1.10
2022-07-26T15:29:43.210Z,1.30
2022-07-26T15:34:46.204Z,1.30
2022-07-26T15:39:51.877Z,1.60
2022-07-26T15:44:54.869Z,1.23
2022-07-26T15:49:57.767Z,1.60
2022-07-26T15:55:02.407Z,1.30
2022-07-26T16:00:11.674Z,1.60
2022-07-26T16:05:14.944Z,1.25
2022-07-26T16:10:19.146Z,1.00
2022-07-26T16:15:21.985Z,1.60
2022-07-26T16:20:24.845Z,1.20
2022-07-26T16:25:29.806Z,1.33
2022-07-26T16:30:32.668Z,1.30
2022-07-26T16:35:35.597Z,1.40
2022-07-26T16:40:39.802Z,1.30
2022-07-26T16:45:42.592Z,1.00
2022-07-26T16:50:45.488Z,0.93
2022-07-26T16:55:51.781Z,0.85
2022-07-26T17:00:54.776Z,0.80
2022-07-26T17:05:59.098Z,0.90
2022-07-26T17:11:05.953Z,0.98
2022-07-26T17:16:08.878Z,1.00
2022-07-26T17:21:11.746Z,0.88
2022-07-26T17:26:16.337Z,0.90
2022-07-26T17:31:19.269Z,1.13
2022-07-26T17:36:26.646Z,1.00
2022-07-26T17:41:32.868Z,0.70
2022-07-26T17:46:36.500Z,0.93
2022-07-26T17:51:39.470Z,0.98
2022-07-26T17:56:43.630Z,0.70
2022-07-26T18:01:50.568Z,0.60
2022-07-26T18:06:56.690Z,0.80
2022-07-26T18:12:00.908Z,1.33
2022-07-26T18:17:03.783Z,0.90
2022-07-26T18:22:06.677Z,1.25
2022-07-26T18:27:10.903Z,0.70
2022-07-26T18:32:15.186Z,1.00
2022-07-26T18:37:18.040Z,0.90
2022-07-26T18:42:22.388Z,1.08
2022-07-26T18:47:25.647Z,1.27
2022-07-26T18:52:32.274Z,1.15
2022-07-26T18:57:38.236Z,1.50
2022-07-26T19:02:41.456Z,0.80
2022-07-26T19:07:44.949Z,1.10
2022-07-26T19:12:49.671Z,1.00
2022-07-26T19:17:52.621Z,0.90
2022-07-26T19:22:55.582Z,1.33
2022-07-26T19:28:01.713Z,1.30
2022-07-26T19:33:04.750Z,1.10
2022-07-26T19:38:07.675Z,1.38
2022-07-26T19:43:12.072Z,1.30
2022-07-26T19:48:15.128Z,1.13
2022-07-26T19:53:18.656Z,1.05
2022-07-26T19:58:26.163Z,1.00
2022-07-26T20:03:29.901Z,0.80
2022-07-26T20:08:32.884Z,1.00
2022-07-26T20:13:37.174Z,1.05
2022-07-26T20:18:40.048Z,1.08
2022-07-26T20:23:42.899Z,1.08
2022-07-26T20:28:47.185Z,1.00
2022-07-26T20:33:53.292Z,0.90
2022-07-26T20:38:56.156Z,1.23
2022-07-26T20:44:00.449Z,1.38
2022-07-26T20:49:03.376Z,1.10
2022-07-26T20:54:08.416Z,1.58
2022-07-26T20:59:13.127Z,1.40
2022-07-26T21:04:16.260Z,1.25
2022-07-26T21:09:19.768Z,0.93
2022-07-26T21:14:24.032Z,1.20
2022-07-26T21:19:26.934Z,1.30
2022-07-26T21:24:29.973Z,1.25
2022-07-26T21:29:37.941Z,1.48
2022-07-26T21:34:42.443Z,1.05
2022-07-26T21:39:45.275Z,1.20
2022-07-26T21:44:49.926Z,1.20
2022-07-26T21:49:52.813Z,1.23
2022-07-26T21:54:55.654Z,1.10
2022-07-26T21:59:59.829Z,1.00
2022-07-26T22:05:02.603Z,1.13
2022-07-26T22:10:05.856Z,1.25
2022-07-26T22:15:11.006Z,1.40
2022-07-26T22:20:14.735Z,1.00
2022-07-26T22:25:17.584Z,1.13
2022-07-26T22:30:21.811Z,1.20
2022-07-26T22:35:25.103Z,1.00
2022-07-26T22:40:35.795Z,1.30
2022-07-26T22:45:40.130Z,1.70
2022-07-26T22:50:43.028Z,1.20
2022-07-26T22:55:46.190Z,1.00
2022-07-26T23:00:50.502Z,1.23
2022-07-26T23:05:53.567Z,1.20
2022-07-26T23:10:57.126Z,1.77
2022-07-26T23:16:01.880Z,1.25
2022-07-26T23:21:05.368Z,1.20
2022-07-26T23:26:08.149Z,1.23
2022-07-26T23:31:14.276Z,1.08
2022-07-26T23:36:17.357Z,1.20
2022-07-26T23:41:20.283Z,1.67
2022-07-26T23:46:25.155Z,1.23
2022-07-26T23:51:28.368Z,1.20
2022-07-26T23:56:31.208Z,1.70
